Airfield :
LOGIN :

Register | Disclaimer

   EN    FR    IT 

 










Legend :    VFR   Marginal VFR   IFR   Intensive IFR   Very Intensive IFR
Visi :
Ceiling :
>= 8 km
>= 3000ft
5 to 8 km
1000 to 3000 ft
1500m to 5 km
500 to 1000 ft
800 to 1500m
200 to 500 ft
< 800m
< 200 ft
Symbols :   Thunderstorms  Fog  Heavy snow  Heavy precipitations  Wind > 20 kt
SIGMETs :     Misc.  Thunderstorms  Icing  Turbulence  Mountain Waves  Volcanic Ashes






- Airport Elevation : 913 ft


LFSX - Luxeuil

CURRENT METAR :
  • 211830Z AUTO 22014KT 9999 ///TCU 13/07 Q1014

EXPIRED METARs :
  • 211800Z AUTO 22012KT CAVOK 13/07 Q1014
  • 211730Z AUTO 21014KT CAVOK 13/07 Q1014
  • 211700Z AUTO 22014KT CAVOK 13/07 Q1014
  • 211630Z AUTO 23011KT CAVOK 14/07 Q1014
  • 211600Z AUTO 22012KT CAVOK 14/07 Q1013

TAF TAF LFSX
Valid from the 21 at 15:00 until the 22 at 15:00 UTC


211400Z 2115/2215 24014G24KT 9999 BKN040
TEMPO 2121/2124 5000 -SHRA BKN014 SCT025TCU
BECMG 2200/2201 31008KT BKN020



MET'MAP, your aeronautical weather chart ! - Copyright ORBIFLY December 2007 - Disclaimer

ORBIFLY MET'MAP TEAM :

Programming & Development : Alexandra Zaïnal
Concept & original design : Baudouin d'Aumeries
Assistance for programming : Marc-Olivier Méhu
Technical & hardware support : Manuel Goepfert

Contact : metmap@orbifly.com




SOURCES & CREDITS :

   NOAA